createdAt,value
2022-09-20T00:01:41.792Z,7.28
2022-09-20T00:04:09.936Z,7.24
2022-09-20T00:06:38.057Z,7.20
2022-09-20T00:09:06.420Z,7.18
2022-09-20T00:11:37.186Z,7.17
2022-09-20T00:14:08.918Z,7.16
2022-09-20T00:16:40.054Z,7.12
2022-09-20T00:19:08.993Z,7.09
2022-09-20T00:21:38.356Z,7.05
2022-09-20T00:24:06.874Z,7.08
2022-09-20T00:26:35.063Z,7.10
2022-09-20T00:29:04.002Z,7.08
2022-09-20T00:31:32.866Z,7.12
2022-09-20T00:34:37.426Z,7.14
2022-09-20T00:37:05.591Z,7.13
2022-09-20T00:39:33.724Z,7.16
2022-09-20T00:42:02.094Z,7.12
2022-09-20T00:44:45.959Z,7.09
2022-09-20T00:47:22.626Z,7.10
2022-09-20T00:49:56.470Z,7.09
2022-09-20T00:52:25.117Z,7.09
2022-09-20T00:54:54.425Z,7.06
2022-09-20T00:57:23.598Z,7.05
2022-09-20T00:59:54.073Z,7.06
2022-09-20T01:02:28.059Z,7.11
2022-09-20T01:04:57.853Z,7.12
2022-09-20T01:07:27.199Z,7.05
2022-09-20T01:09:55.644Z,7.11
2022-09-20T01:12:29.440Z,7.12
2022-09-20T01:15:00.579Z,7.17
2022-09-20T01:17:33.216Z,7.14
2022-09-20T01:20:18.964Z,7.16
2022-09-20T01:23:08.997Z,7.21
2022-09-20T01:25:58.286Z,7.22
2022-09-20T01:28:28.167Z,7.23
2022-09-20T01:31:13.263Z,7.24
2022-09-20T01:33:45.885Z,7.20
2022-09-20T01:36:20.820Z,7.19
2022-09-20T01:39:19.817Z,7.18
2022-09-20T01:41:51.427Z,7.22
2022-09-20T01:44:40.797Z,7.20
2022-09-20T01:47:30.316Z,7.16
2022-09-20T01:50:06.983Z,7.12
2022-09-20T01:52:37.861Z,7.09
2022-09-20T01:55:44.604Z,7.03
2022-09-20T01:58:36.044Z,7.02
2022-09-20T02:01:41.722Z,6.99
2022-09-20T02:04:24.811Z,7.00
2022-09-20T02:07:28.367Z,6.97
2022-09-20T02:10:27.159Z,6.91
2022-09-20T02:13:18.749Z,6.93
2022-09-20T02:16:11.277Z,6.84
2022-09-20T02:19:00.931Z,6.83
2022-09-20T02:21:34.904Z,6.82
2022-09-20T02:24:41.568Z,6.80
2022-09-20T02:27:12.355Z,6.79
2022-09-20T02:29:59.488Z,6.78
2022-09-20T02:32:53.644Z,6.72
2022-09-20T02:35:33.421Z,6.69
2022-09-20T02:38:35.304Z,6.68
2022-09-20T02:41:29.568Z,6.66
2022-09-20T02:44:05.066Z,6.64
2022-09-20T02:46:50.932Z,6.63
2022-09-20T02:49:37.283Z,6.58
2022-09-20T02:52:11.915Z,6.50
2022-09-20T02:54:58.883Z,6.42
2022-09-20T02:57:42.392Z,6.36
2022-09-20T03:00:40.216Z,6.30
2022-09-20T03:03:28.476Z,6.26
2022-09-20T03:06:27.718Z,6.23
2022-09-20T03:09:11.317Z,6.19
2022-09-20T03:11:51.714Z,6.16
2022-09-20T03:14:27.666Z,6.15
2022-09-20T03:17:07.132Z,6.13
2022-09-20T03:19:55.510Z,6.15
2022-09-20T03:22:32.851Z,6.15
2022-09-20T03:25:06.631Z,6.15
2022-09-20T03:27:58.922Z,6.15
2022-09-20T03:30:36.937Z,6.15
2022-09-20T03:33:21.112Z,6.12
2022-09-20T03:36:08.792Z,6.12
2022-09-20T03:38:45.977Z,6.09
2022-09-20T03:41:26.262Z,6.07
2022-09-20T03:43:57.449Z,6.04
2022-09-20T03:46:26.660Z,5.99
2022-09-20T03:49:48.155Z,5.96
2022-09-20T03:52:38.232Z,5.94
2022-09-20T03:55:14.157Z,5.88
2022-09-20T03:58:08.865Z,5.87
2022-09-20T04:01:10.410Z,5.83
2022-09-20T04:04:05.145Z,5.80
2022-09-20T04:06:58.445Z,5.74
2022-09-20T04:10:00.346Z,5.68
2022-09-20T04:13:00.522Z,5.65
2022-09-20T04:15:57.901Z,5.60
2022-09-20T04:18:50.095Z,5.53
2022-09-20T04:21:39.813Z,5.51
2022-09-20T04:24:30.798Z,5.51
2022-09-20T04:27:01.435Z,5.53
2022-09-20T04:30:17.461Z,5.54
2022-09-20T04:33:01.037Z,5.56
2022-09-20T04:36:14.407Z,5.62
2022-09-20T04:38:53.213Z,5.65
2022-09-20T04:41:21.790Z,5.66
2022-09-20T04:44:22.158Z,5.69
2022-09-20T04:47:21.734Z,5.73
2022-09-20T04:50:25.411Z,5.72
2022-09-20T04:53:03.187Z,5.78
2022-09-20T04:55:53.103Z,5.81
2022-09-20T04:58:52.280Z,5.81
2022-09-20T05:01:23.409Z,5.81
2022-09-20T05:04:22.842Z,5.78
2022-09-20T05:06:53.795Z,5.79
2022-09-20T05:09:42.640Z,5.84
2022-09-20T05:12:29.618Z,5.88
2022-09-20T05:15:23.391Z,5.95
2022-09-20T05:18:00.655Z,5.91
2022-09-20T05:20:46.684Z,5.97
2022-09-20T05:23:39.899Z,5.98
2022-09-20T05:26:51.855Z,6.10
2022-09-20T05:29:37.389Z,6.16
2022-09-20T05:32:25.262Z,6.20
2022-09-20T05:35:05.518Z,6.25
2022-09-20T05:37:44.547Z,6.33
2022-09-20T05:40:15.679Z,6.35
2022-09-20T05:43:06.399Z,6.43
2022-09-20T05:46:04.239Z,6.48
2022-09-20T05:48:57.453Z,6.51
2022-09-20T05:51:47.670Z,6.56
2022-09-20T05:55:06.777Z,6.65
2022-09-20T05:57:56.557Z,6.67
2022-09-20T06:00:45.307Z,6.71
2022-09-20T06:03:33.490Z,6.78
2022-09-20T06:06:04.988Z,6.81
2022-09-20T06:09:06.969Z,6.86
2022-09-20T06:12:03.281Z,6.91
2022-09-20T06:14:34.751Z,7.05
2022-09-20T06:17:06.767Z,7.02
2022-09-20T06:19:56.408Z,7.14
2022-09-20T06:22:31.340Z,7.17
2022-09-20T06:24:59.193Z,7.31
2022-09-20T06:27:37.861Z,7.35
2022-09-20T06:30:15.311Z,7.43
2022-09-20T06:32:57.724Z,7.53
2022-09-20T06:35:41.807Z,7.65
2022-09-20T06:39:04.807Z,7.70
2022-09-20T06:41:34.903Z,7.78
2022-09-20T06:44:07.157Z,7.81
2022-09-20T06:46:36.526Z,7.95
2022-09-20T06:49:08.391Z,8.03
2022-09-20T06:51:40.248Z,8.07
2022-09-20T06:54:17.959Z,8.16
2022-09-20T06:56:47.713Z,8.24
2022-09-20T06:59:18.424Z,8.33
2022-09-20T07:01:46.953Z,8.54
2022-09-20T07:04:15.268Z,8.49
2022-09-20T07:06:43.778Z,8.66
2022-09-20T07:09:13.669Z,8.74
2022-09-20T07:11:43.208Z,8.83
2022-09-20T07:14:12.021Z,8.98
2022-09-20T07:16:40.182Z,8.98
2022-09-20T07:19:08.277Z,9.04
2022-09-20T07:21:36.621Z,9.13
2022-09-20T07:24:05.238Z,9.14
2022-09-20T07:26:33.923Z,9.21
2022-09-20T07:29:02.288Z,9.23
2022-09-20T07:31:32.518Z,9.44
2022-09-20T07:34:00.627Z,9.55
2022-09-20T07:36:29.546Z,9.56
2022-09-20T07:38:57.755Z,9.60
2022-09-20T07:41:26.782Z,9.65
2022-09-20T07:43:54.927Z,9.76
2022-09-20T07:46:25.212Z,9.89
2022-09-20T07:48:53.560Z,10.10
2022-09-20T07:51:22.399Z,10.15
2022-09-20T07:53:56.115Z,10.34
2022-09-20T07:56:24.310Z,10.43
2022-09-20T07:59:10.370Z,10.55
2022-09-20T08:01:39.372Z,10.53
2022-09-20T08:04:11.249Z,10.76
2022-09-20T08:06:42.260Z,10.94
2022-09-20T08:09:14.297Z,10.92
2022-09-20T08:11:44.056Z,10.93
2022-09-20T08:14:18.961Z,10.98
2022-09-20T08:16:48.550Z,10.94
2022-09-20T08:19:23.087Z,11.07
2022-09-20T08:21:54.415Z,11.08
2022-09-20T08:24:22.513Z,11.13
2022-09-20T08:26:51.891Z,11.17
2022-09-20T08:29:20.269Z,11.12
2022-09-20T08:31:48.684Z,11.08
2022-09-20T08:34:18.524Z,11.09
2022-09-20T08:36:47.787Z,11.15
2022-09-20T08:42:33.612Z,11.34
2022-09-20T08:45:34.610Z,11.23
2022-09-20T08:48:08.396Z,11.38
2022-09-20T08:50:37.597Z,11.55
2022-09-20T08:53:06.282Z,11.60
2022-09-20T08:55:36.823Z,11.61
2022-09-20T08:58:08.852Z,11.67
2022-09-20T09:00:40.531Z,11.74
2022-09-20T09:03:17.890Z,11.66
2022-09-20T09:05:46.877Z,11.79
2022-09-20T09:08:38.321Z,11.98
2022-09-20T09:11:12.678Z,12.13
2022-09-20T09:13:49.541Z,11.84
2022-09-20T09:16:24.816Z,11.88
2022-09-20T09:18:57.900Z,12.34
2022-09-20T09:21:29.118Z,12.70
2022-09-20T09:24:16.143Z,12.64
2022-09-20T09:26:45.509Z,12.81
2022-09-20T09:29:18.726Z,12.74
2022-09-20T09:31:52.882Z,12.65
2022-09-20T09:34:38.896Z,12.41
2022-09-20T09:37:28.262Z,12.18
2022-09-20T09:40:20.803Z,11.99
2022-09-20T09:42:55.328Z,11.68
2022-09-20T09:45:39.054Z,11.74
2022-09-20T09:48:31.527Z,11.67
2022-09-20T09:51:19.339Z,11.70
2022-09-20T09:53:52.028Z,11.89
2022-09-20T09:56:33.302Z,12.06
2022-09-20T09:59:12.737Z,12.44
2022-09-20T10:02:04.722Z,12.79
2022-09-20T10:04:42.055Z,12.94
2022-09-20T10:07:33.973Z,13.22
2022-09-20T10:10:28.730Z,13.55
2022-09-20T10:13:22.728Z,13.68
2022-09-20T10:16:33.934Z,13.59
2022-09-20T10:22:38.235Z,13.73
2022-09-20T10:25:22.817Z,13.52
2022-09-20T10:28:08.091Z,13.20
2022-09-20T10:31:03.815Z,13.01
2022-09-20T10:33:54.511Z,12.97
2022-09-20T10:36:43.846Z,13.04
2022-09-20T10:39:28.829Z,12.52
2022-09-20T10:42:42.289Z,12.29
2022-09-20T10:45:42.062Z,12.49
2022-09-20T10:48:29.806Z,12.68
2022-09-20T10:51:21.600Z,12.81
2022-09-20T10:54:42.963Z,13.14
2022-09-20T10:57:47.002Z,13.48
2022-09-20T11:00:41.683Z,13.29
2022-09-20T11:03:37.869Z,13.33
2022-09-20T11:06:41.193Z,13.08
2022-09-20T11:09:19.986Z,13.06
2022-09-20T11:12:21.375Z,13.03
2022-09-20T11:14:58.255Z,13.60
2022-09-20T11:17:32.615Z,14.02
2022-09-20T11:20:20.962Z,14.66
2022-09-20T11:22:48.885Z,15.19
2022-09-20T11:25:34.867Z,15.19
2022-09-20T11:28:23.072Z,15.70
2022-09-20T11:31:15.458Z,16.08
2022-09-20T11:33:49.362Z,16.92
2022-09-20T11:36:27.066Z,17.15
2022-09-20T11:39:03.695Z,16.90
2022-09-20T11:41:33.367Z,16.47
2022-09-20T11:44:08.072Z,16.06
2022-09-20T11:47:02.787Z,15.72
2022-09-20T11:49:46.477Z,15.45
2022-09-20T11:52:40.445Z,14.90
2022-09-20T11:55:57.640Z,14.72
2022-09-20T11:58:27.807Z,14.22
2022-09-20T12:01:02.960Z,14.15
2022-09-20T12:03:41.165Z,14.40
2022-09-20T12:06:34.035Z,13.82
2022-09-20T12:09:23.074Z,13.62
2022-09-20T12:11:52.927Z,13.75
2022-09-20T12:14:32.477Z,13.48
2022-09-20T12:17:03.115Z,13.32
2022-09-20T12:19:32.559Z,13.30
2022-09-20T12:22:04.512Z,13.08
2022-09-20T12:24:45.332Z,13.23
2022-09-20T12:27:30.501Z,13.28
2022-09-20T12:30:20.089Z,13.36
2022-09-20T12:32:52.461Z,13.48
2022-09-20T12:35:35.844Z,13.41
2022-09-20T12:38:22.766Z,13.58
2022-09-20T12:41:14.997Z,13.64
2022-09-20T12:44:03.963Z,13.45
2022-09-20T12:46:41.140Z,13.34
2022-09-20T12:49:41.337Z,13.42
2022-09-20T12:52:57.803Z,13.04
2022-09-20T12:55:39.969Z,13.12
2022-09-20T12:58:14.770Z,12.91
2022-09-20T13:00:56.811Z,12.75
2022-09-20T13:03:43.128Z,12.70
2022-09-20T13:06:15.669Z,12.68
2022-09-20T13:09:01.957Z,12.56
2022-09-20T13:11:45.819Z,12.37
2022-09-20T13:14:22.762Z,12.22
2022-09-20T13:16:59.154Z,12.27
2022-09-20T13:19:49.130Z,12.14
2022-09-20T13:22:28.529Z,12.16
2022-09-20T13:25:03.116Z,12.19
2022-09-20T13:27:35.318Z,12.11
2022-09-20T13:30:36.101Z,12.15
2022-09-20T13:33:25.645Z,12.26
2022-09-20T13:36:03.343Z,12.29
2022-09-20T13:38:32.083Z,12.32
2022-09-20T13:41:10.752Z,12.39
2022-09-20T13:43:51.677Z,12.40
2022-09-20T13:46:32.190Z,12.52
2022-09-20T13:49:09.396Z,12.48
2022-09-20T13:51:37.687Z,12.38
2022-09-20T13:57:12.184Z,12.21
2022-09-20T13:59:45.901Z,12.18
2022-09-20T14:02:30.567Z,12.09
2022-09-20T14:05:05.600Z,12.26
2022-09-20T14:07:36.714Z,12.39
2022-09-20T14:10:27.186Z,12.45
2022-09-20T14:12:57.373Z,12.48
2022-09-20T14:15:29.604Z,12.45
2022-09-20T14:17:58.883Z,12.48
2022-09-20T14:20:31.485Z,12.31
2022-09-20T14:23:00.982Z,12.40
2022-09-20T14:25:30.029Z,12.39
2022-09-20T14:28:17.952Z,12.31
2022-09-20T14:30:47.956Z,12.27
2022-09-20T14:33:21.244Z,12.19
2022-09-20T14:35:53.131Z,12.09
2022-09-20T14:38:26.716Z,12.05
2022-09-20T14:41:00.101Z,12.04
2022-09-20T14:43:52.537Z,12.06
2022-09-20T14:46:31.049Z,11.98
2022-09-20T14:49:22.394Z,11.87
2022-09-20T14:51:51.715Z,11.80
2022-09-20T14:54:32.025Z,11.73
2022-09-20T14:57:02.541Z,11.72
2022-09-20T14:59:42.643Z,11.77
2022-09-20T15:02:19.068Z,11.85
2022-09-20T15:04:55.018Z,11.80
2022-09-20T15:07:23.568Z,11.73
2022-09-20T15:09:51.985Z,11.69
2022-09-20T15:12:24.592Z,11.65
2022-09-20T15:14:53.175Z,11.76
2022-09-20T15:17:22.572Z,11.63
2022-09-20T15:19:50.830Z,11.67
2022-09-20T15:22:19.110Z,11.64
2022-09-20T15:24:47.769Z,11.68
2022-09-20T15:27:16.148Z,11.63
2022-09-20T15:29:44.320Z,11.52
2022-09-20T15:32:15.283Z,11.60
2022-09-20T15:34:43.939Z,11.54
2022-09-20T15:37:12.264Z,11.51
2022-09-20T15:39:40.444Z,11.44
2022-09-20T15:42:10.438Z,11.43
2022-09-20T15:44:41.225Z,11.42
2022-09-20T15:47:15.948Z,11.40
2022-09-20T15:49:46.914Z,11.28
2022-09-20T15:52:16.918Z,11.29
2022-09-20T15:54:47.891Z,11.28
2022-09-20T15:57:16.617Z,11.29
2022-09-20T15:59:46.698Z,11.23
2022-09-20T16:02:16.439Z,11.20
2022-09-20T16:04:45.119Z,11.25
2022-09-20T16:07:16.443Z,11.17
2022-09-20T16:09:58.983Z,11.17
2022-09-20T16:12:27.663Z,11.10
2022-09-20T16:14:57.039Z,11.04
2022-09-20T16:17:45.915Z,11.05
2022-09-20T16:20:15.105Z,11.00
2022-09-20T16:22:43.778Z,10.94
2022-09-20T16:25:13.126Z,10.91
2022-09-20T16:27:41.869Z,10.90
2022-09-20T16:30:11.183Z,10.85
2022-09-20T16:32:41.257Z,10.83
2022-09-20T16:35:10.008Z,10.73
2022-09-20T16:37:39.790Z,10.74
2022-09-20T16:40:11.437Z,10.71
2022-09-20T16:42:39.787Z,10.63
2022-09-20T16:45:08.456Z,10.60
2022-09-20T16:47:41.243Z,10.61
2022-09-20T16:50:10.269Z,10.49
2022-09-20T16:52:40.097Z,10.48
2022-09-20T16:55:11.680Z,10.52
2022-09-20T16:57:40.282Z,10.47
2022-09-20T17:00:10.556Z,10.47
2022-09-20T17:02:39.214Z,10.42
2022-09-20T17:05:08.629Z,10.34
2022-09-20T17:07:37.306Z,10.32
2022-09-20T17:10:05.897Z,10.32
2022-09-20T17:12:41.571Z,10.21
2022-09-20T17:15:13.346Z,10.17
2022-09-20T17:17:42.193Z,10.13
2022-09-20T17:20:10.336Z,10.09
2022-09-20T17:22:38.627Z,10.01
2022-09-20T17:25:07.304Z,9.92
2022-09-20T17:27:39.970Z,9.81
2022-09-20T17:30:10.300Z,9.80
2022-09-20T17:32:41.932Z,9.75
2022-09-20T17:35:10.263Z,9.70
2022-09-20T17:37:38.373Z,9.59
2022-09-20T17:40:07.340Z,9.51
2022-09-20T17:42:38.981Z,9.47
2022-09-20T17:45:09.188Z,9.37
2022-09-20T17:47:39.964Z,9.32
2022-09-20T17:50:17.456Z,9.24
2022-09-20T17:52:47.904Z,9.21
2022-09-20T17:55:16.370Z,9.13
2022-09-20T17:57:44.315Z,9.09
2022-09-20T18:00:13.943Z,9.03
2022-09-20T18:02:43.210Z,8.94
2022-09-20T18:05:14.340Z,8.92
2022-09-20T18:07:42.417Z,8.83
2022-09-20T18:10:17.304Z,8.83
2022-09-20T18:12:45.537Z,8.78
2022-09-20T18:15:13.657Z,8.75
2022-09-20T18:17:42.714Z,8.69
2022-09-20T18:20:12.131Z,8.61
2022-09-20T18:22:40.136Z,8.58
2022-09-20T18:25:08.570Z,8.54
2022-09-20T18:27:38.306Z,8.45
2022-09-20T18:30:07.756Z,8.44
2022-09-20T18:32:35.856Z,8.40
2022-09-20T18:35:06.628Z,8.34
2022-09-20T18:37:36.439Z,8.26
2022-09-20T18:40:05.491Z,8.20
2022-09-20T18:42:33.773Z,8.12
2022-09-20T18:45:02.931Z,8.03
2022-09-20T18:47:32.117Z,7.99
2022-09-20T18:50:01.790Z,7.95
2022-09-20T18:52:29.945Z,7.93
2022-09-20T18:54:58.783Z,7.93
2022-09-20T18:57:27.148Z,7.86
2022-09-20T19:00:03.158Z,7.81
2022-09-20T19:02:32.018Z,7.75
2022-09-20T19:05:23.761Z,7.70
2022-09-20T19:08:03.258Z,7.68
2022-09-20T19:10:53.776Z,7.61
2022-09-20T19:13:42.410Z,7.58
2022-09-20T19:16:22.730Z,7.57
2022-09-20T19:19:42.432Z,7.54
2022-09-20T19:22:27.388Z,7.52
2022-09-20T19:25:19.944Z,7.47
2022-09-20T19:27:50.157Z,7.45
2022-09-20T19:30:21.409Z,7.40
2022-09-20T19:32:50.246Z,7.35
2022-09-20T19:35:25.130Z,7.32
2022-09-20T19:37:58.517Z,7.26
2022-09-20T19:40:50.482Z,7.21
2022-09-20T19:44:08.297Z,7.18
2022-09-20T19:46:36.378Z,7.11
2022-09-20T19:49:10.283Z,7.09
2022-09-20T19:51:40.505Z,7.10
2022-09-20T19:54:14.906Z,7.06
2022-09-20T19:56:53.040Z,7.02
2022-09-20T19:59:22.857Z,7.00
2022-09-20T20:01:52.578Z,6.97
2022-09-20T20:04:21.820Z,6.96
2022-09-20T20:07:06.193Z,6.92
2022-09-20T20:09:45.484Z,6.88
2022-09-20T20:12:15.673Z,6.87
2022-09-20T20:15:03.890Z,6.86
2022-09-20T20:17:57.753Z,6.86
2022-09-20T20:20:41.003Z,6.83
2022-09-20T20:23:30.479Z,6.83
2022-09-20T20:26:08.075Z,6.86
2022-09-20T20:28:36.836Z,6.86
2022-09-20T20:31:06.532Z,6.84
2022-09-20T20:33:34.717Z,6.83
2022-09-20T20:36:02.967Z,6.82
2022-09-20T20:38:37.650Z,6.87
2022-09-20T20:41:14.044Z,6.87
2022-09-20T20:43:43.687Z,6.88
2022-09-20T20:46:14.458Z,6.87
2022-09-20T20:48:43.051Z,6.86
2022-09-20T20:51:14.113Z,6.89
2022-09-20T20:53:47.952Z,6.82
2022-09-20T20:56:18.929Z,6.87
2022-09-20T20:58:48.458Z,6.86
2022-09-20T21:01:26.105Z,6.84
2022-09-20T21:03:58.314Z,6.88
2022-09-20T21:06:32.206Z,6.87
2022-09-20T21:09:00.654Z,6.86
2022-09-20T21:11:34.462Z,6.87
2022-09-20T21:14:06.805Z,6.87
2022-09-20T21:16:37.531Z,6.89
2022-09-20T21:19:07.133Z,6.85
2022-09-20T21:21:38.788Z,6.84
2022-09-20T21:24:08.954Z,6.82
2022-09-20T21:26:38.468Z,6.81
2022-09-20T21:29:10.146Z,6.83
2022-09-20T21:31:40.125Z,6.87
2022-09-20T21:34:10.175Z,6.95
2022-09-20T21:36:41.564Z,7.01
2022-09-20T21:39:09.703Z,7.01
2022-09-20T21:41:40.402Z,7.00
2022-09-20T21:44:12.314Z,6.96
2022-09-20T21:46:42.539Z,6.99
2022-09-20T21:49:12.359Z,6.92
2022-09-20T21:51:42.768Z,6.97
2022-09-20T21:54:11.411Z,6.94
2022-09-20T21:56:41.326Z,6.93
2022-09-20T21:59:09.551Z,6.96
2022-09-20T22:01:40.511Z,6.90
2022-09-20T22:04:12.234Z,6.89
2022-09-20T22:06:42.736Z,6.90
2022-09-20T22:09:14.109Z,6.94
2022-09-20T22:11:44.685Z,6.88
2022-09-20T22:14:15.226Z,6.90
2022-09-20T22:16:45.309Z,6.89
2022-09-20T22:19:16.514Z,6.95
2022-09-20T22:21:50.034Z,6.91
2022-09-20T22:24:19.226Z,6.89
2022-09-20T22:26:50.168Z,6.84
2022-09-20T22:29:18.710Z,6.78
2022-09-20T22:31:50.213Z,6.76
2022-09-20T22:34:20.830Z,6.73
2022-09-20T22:36:49.745Z,6.70
2022-09-20T22:39:17.904Z,6.66
2022-09-20T22:41:48.242Z,6.61
2022-09-20T22:44:16.587Z,6.61
2022-09-20T22:46:44.648Z,6.60
2022-09-20T22:49:12.644Z,6.61
2022-09-20T22:51:40.735Z,6.62
2022-09-20T22:54:11.328Z,6.61
2022-09-20T22:56:43.990Z,6.57
2022-09-20T22:59:15.449Z,6.53
2022-09-20T23:01:46.051Z,6.50
2022-09-20T23:04:18.157Z,6.51
2022-09-20T23:06:49.269Z,6.53
2022-09-20T23:09:18.318Z,6.54
2022-09-20T23:11:47.602Z,6.55
2022-09-20T23:14:18.953Z,6.50
2022-09-20T23:16:48.277Z,6.52
2022-09-20T23:19:17.117Z,6.51
2022-09-20T23:21:45.698Z,6.56
2022-09-20T23:24:16.163Z,6.54
2022-09-20T23:26:45.222Z,6.61
2022-09-20T23:29:15.688Z,6.61
2022-09-20T23:31:46.688Z,6.60
2022-09-20T23:34:16.773Z,6.58
2022-09-20T23:36:45.929Z,6.55
2022-09-20T23:39:14.616Z,6.59
2022-09-20T23:41:47.010Z,6.65
2022-09-20T23:44:18.903Z,6.69
2022-09-20T23:46:46.842Z,6.67
2022-09-20T23:49:14.945Z,6.67
2022-09-20T23:51:42.950Z,6.68
2022-09-20T23:54:11.004Z,6.68
2022-09-20T23:56:40.963Z,6.77
2022-09-20T23:59:08.899Z,6.75
